sensor_id;sensor_type;location;lat;lon;timestamp;P1;durP1;ratioP1;P2;durP2;ratioP2
6163;SDS011;3114;48.362;10.994;2022-08-01T00:10:47;1.77;;;1.58;;
6163;SDS011;3114;48.362;10.994;2022-08-01T00:13:14;2.00;;;1.60;;
6163;SDS011;3114;48.362;10.994;2022-08-01T00:15:41;2.85;;;1.50;;
6163;SDS011;3114;48.362;10.994;2022-08-01T00:18:08;3.55;;;2.22;;
6163;SDS011;3114;48.362;10.994;2022-08-01T00:20:35;2.35;;;1.83;;
6163;SDS011;3114;48.362;10.994;2022-08-01T00:23:02;2.40;;;1.90;;
6163;SDS011;3114;48.362;10.994;2022-08-01T00:25:31;4.05;;;1.92;;
6163;SDS011;3114;48.362;10.994;2022-08-01T00:27:58;2.25;;;1.60;;
6163;SDS011;3114;48.362;10.994;2022-08-01T00:30:25;4.72;;;1.80;;
6163;SDS011;3114;48.362;10.994;2022-08-01T00:32:52;4.93;;;1.80;;
6163;SDS011;3114;48.362;10.994;2022-08-01T00:35:19;2.92;;;1.80;;
6163;SDS011;3114;48.362;10.994;2022-08-01T00:37:46;1.55;;;1.45;;
6163;SDS011;3114;48.362;10.994;2022-08-01T00:40:12;3.67;;;1.83;;
6163;SDS011;3114;48.362;10.994;2022-08-01T00:42:41;5.00;;;1.88;;
6163;SDS011;3114;48.362;10.994;2022-08-01T00:45:08;3.58;;;1.67;;
6163;SDS011;3114;48.362;10.994;2022-08-01T00:47:35;2.47;;;1.70;;
6163;SDS011;3114;48.362;10.994;2022-08-01T00:50:03;3.63;;;1.52;;
6163;SDS011;3114;48.362;10.994;2022-08-01T00:52:30;3.05;;;1.70;;
6163;SDS011;3114;48.362;10.994;2022-08-01T00:55:02;5.05;;;1.48;;
6163;SDS011;3114;48.362;10.994;2022-08-01T00:57:29;3.30;;;1.80;;
6163;SDS011;3114;48.362;10.994;2022-08-01T00:59:58;1.80;;;1.50;;
6163;SDS011;3114;48.362;10.994;2022-08-01T01:02:25;2.42;;;1.80;;
6163;SDS011;3114;48.362;10.994;2022-08-01T01:04:52;2.08;;;1.70;;
6163;SDS011;3114;48.362;10.994;2022-08-01T01:07:19;3.30;;;1.65;;
6163;SDS011;3114;48.362;10.994;2022-08-01T01:09:51;3.30;;;1.60;;
6163;SDS011;3114;48.362;10.994;2022-08-01T01:12:26;7.68;;;1.70;;
6163;SDS011;3114;48.362;10.994;2022-08-01T01:15:04;3.00;;;1.63;;
6163;SDS011;3114;48.362;10.994;2022-08-01T01:17:35;2.80;;;1.70;;
6163;SDS011;3114;48.362;10.994;2022-08-01T01:20:07;3.28;;;1.67;;
6163;SDS011;3114;48.362;10.994;2022-08-01T01:22:45;3.83;;;1.40;;
6163;SDS011;3114;48.362;10.994;2022-08-01T01:25:24;1.98;;;1.70;;
6163;SDS011;3114;48.362;10.994;2022-08-01T01:28:08;2.95;;;1.70;;
6163;SDS011;3114;48.362;10.994;2022-08-01T01:30:42;2.88;;;1.50;;
6163;SDS011;3114;48.362;10.994;2022-08-01T01:33:12;3.03;;;1.80;;
6163;SDS011;3114;48.362;10.994;2022-08-01T01:35:41;3.45;;;2.00;;
6163;SDS011;3114;48.362;10.994;2022-08-01T01:41:33;2.78;;;1.60;;
6163;SDS011;3114;48.362;10.994;2022-08-01T01:44:03;1.80;;;1.50;;
6163;SDS011;3114;48.362;10.994;2022-08-01T01:46:32;2.08;;;1.30;;
6163;SDS011;3114;48.362;10.994;2022-08-01T01:49:00;1.60;;;1.45;;
6163;SDS011;3114;48.362;10.994;2022-08-01T01:51:30;2.50;;;1.60;;
6163;SDS011;3114;48.362;10.994;2022-08-01T01:53:59;1.88;;;1.77;;
6163;SDS011;3114;48.362;10.994;2022-08-01T01:56:30;2.13;;;1.60;;
6163;SDS011;3114;48.362;10.994;2022-08-01T01:58:59;1.65;;;1.50;;
6163;SDS011;3114;48.362;10.994;2022-08-01T02:01:29;1.70;;;1.60;;
6163;SDS011;3114;48.362;10.994;2022-08-01T02:03:59;2.47;;;1.70;;
6163;SDS011;3114;48.362;10.994;2022-08-01T02:06:28;2.63;;;1.52;;
6163;SDS011;3114;48.362;10.994;2022-08-01T02:08:57;1.55;;;1.45;;
6163;SDS011;3114;48.362;10.994;2022-08-01T02:11:26;1.88;;;1.70;;
6163;SDS011;3114;48.362;10.994;2022-08-01T02:13:55;1.67;;;1.58;;
6163;SDS011;3114;48.362;10.994;2022-08-01T02:16:25;1.65;;;1.55;;
6163;SDS011;3114;48.362;10.994;2022-08-01T02:18:54;2.15;;;1.65;;
6163;SDS011;3114;48.362;10.994;2022-08-01T02:21:25;3.15;;;1.50;;
6163;SDS011;3114;48.362;10.994;2022-08-01T02:23:54;2.60;;;1.80;;
6163;SDS011;3114;48.362;10.994;2022-08-01T02:26:25;2.67;;;1.70;;
6163;SDS011;3114;48.362;10.994;2022-08-01T02:28:56;2.55;;;1.55;;
6163;SDS011;3114;48.362;10.994;2022-08-01T02:31:27;2.03;;;1.80;;
6163;SDS011;3114;48.362;10.994;2022-08-01T02:33:58;2.00;;;1.63;;
6163;SDS011;3114;48.362;10.994;2022-08-01T02:36:30;2.65;;;1.60;;
6163;SDS011;3114;48.362;10.994;2022-08-01T02:39:00;3.38;;;1.80;;
6163;SDS011;3114;48.362;10.994;2022-08-01T02:41:29;1.92;;;1.48;;
6163;SDS011;3114;48.362;10.994;2022-08-01T02:43:58;1.98;;;1.75;;
6163;SDS011;3114;48.362;10.994;2022-08-01T02:46:31;2.78;;;1.77;;
6163;SDS011;3114;48.362;10.994;2022-08-01T02:49:03;1.83;;;1.52;;
6163;SDS011;3114;48.362;10.994;2022-08-01T02:51:35;2.05;;;1.83;;
6163;SDS011;3114;48.362;10.994;2022-08-01T02:54:03;2.22;;;1.73;;
6163;SDS011;3114;48.362;10.994;2022-08-01T02:56:33;2.40;;;1.27;;
6163;SDS011;3114;48.362;10.994;2022-08-01T02:59:02;3.33;;;1.52;;
6163;SDS011;3114;48.362;10.994;2022-08-01T03:01:31;2.08;;;1.73;;
6163;SDS011;3114;48.362;10.994;2022-08-01T03:04:00;1.75;;;1.58;;
6163;SDS011;3114;48.362;10.994;2022-08-01T03:06:27;2.95;;;1.63;;
6163;SDS011;3114;48.362;10.994;2022-08-01T03:09:03;2.10;;;1.90;;
6163;SDS011;3114;48.362;10.994;2022-08-01T03:11:32;5.18;;;1.92;;
6163;SDS011;3114;48.362;10.994;2022-08-01T03:14:02;1.80;;;1.50;;
6163;SDS011;3114;48.362;10.994;2022-08-01T03:16:33;2.90;;;1.70;;
6163;SDS011;3114;48.362;10.994;2022-08-01T03:19:19;2.22;;;1.63;;
6163;SDS011;3114;48.362;10.994;2022-08-01T03:21:49;2.30;;;1.73;;
6163;SDS011;3114;48.362;10.994;2022-08-01T03:24:18;2.55;;;1.60;;
6163;SDS011;3114;48.362;10.994;2022-08-01T03:26:47;3.88;;;1.80;;
6163;SDS011;3114;48.362;10.994;2022-08-01T03:29:17;3.17;;;1.63;;
6163;SDS011;3114;48.362;10.994;2022-08-01T03:31:46;3.15;;;2.00;;
6163;SDS011;3114;48.362;10.994;2022-08-01T03:34:15;1.45;;;1.35;;
6163;SDS011;3114;48.362;10.994;2022-08-01T03:36:46;4.55;;;1.92;;
6163;SDS011;3114;48.362;10.994;2022-08-01T03:39:19;2.10;;;1.63;;
6163;SDS011;3114;48.362;10.994;2022-08-01T03:41:51;1.58;;;1.48;;
6163;SDS011;3114;48.362;10.994;2022-08-01T03:44:23;2.80;;;1.63;;
6163;SDS011;3114;48.362;10.994;2022-08-01T03:46:56;2.15;;;1.80;;
6163;SDS011;3114;48.362;10.994;2022-08-01T03:49:29;3.28;;;1.60;;
6163;SDS011;3114;48.362;10.994;2022-08-01T03:51:58;1.88;;;1.67;;
6163;SDS011;3114;48.362;10.994;2022-08-01T03:54:30;2.45;;;1.75;;
6163;SDS011;3114;48.362;10.994;2022-08-01T03:56:59;2.65;;;1.73;;
6163;SDS011;3114;48.362;10.994;2022-08-01T03:59:28;2.50;;;1.95;;
6163;SDS011;3114;48.362;10.994;2022-08-01T04:01:56;3.90;;;1.83;;
6163;SDS011;3114;48.362;10.994;2022-08-01T04:04:23;2.65;;;2.00;;
6163;SDS011;3114;48.362;10.994;2022-08-01T04:06:51;2.00;;;1.77;;
6163;SDS011;3114;48.362;10.994;2022-08-01T04:09:19;3.58;;;2.03;;
6163;SDS011;3114;48.362;10.994;2022-08-01T04:11:48;2.00;;;1.80;;
6163;SDS011;3114;48.362;10.994;2022-08-01T04:14:15;2.13;;;1.92;;
6163;SDS011;3114;48.362;10.994;2022-08-01T04:16:42;3.33;;;1.95;;
6163;SDS011;3114;48.362;10.994;2022-08-01T04:19:09;2.33;;;1.90;;
6163;SDS011;3114;48.362;10.994;2022-08-01T04:21:36;2.00;;;1.73;;
6163;SDS011;3114;48.362;10.994;2022-08-01T04:24:05;2.13;;;1.92;;
6163;SDS011;3114;48.362;10.994;2022-08-01T04:26:34;3.85;;;1.75;;
6163;SDS011;3114;48.362;10.994;2022-08-01T04:29:05;2.08;;;1.80;;
6163;SDS011;3114;48.362;10.994;2022-08-01T04:31:34;5.55;;;1.95;;
6163;SDS011;3114;48.362;10.994;2022-08-01T04:34:02;2.50;;;1.95;;
6163;SDS011;3114;48.362;10.994;2022-08-01T04:36:32;2.20;;;2.00;;
6163;SDS011;3114;48.362;10.994;2022-08-01T04:39:01;4.50;;;1.92;;
6163;SDS011;3114;48.362;10.994;2022-08-01T04:41:30;2.53;;;2.33;;
6163;SDS011;3114;48.362;10.994;2022-08-01T04:43:57;2.35;;;2.00;;
6163;SDS011;3114;48.362;10.994;2022-08-01T04:46:27;2.15;;;1.98;;
6163;SDS011;3114;48.362;10.994;2022-08-01T04:48:54;2.70;;;1.80;;
6163;SDS011;3114;48.362;10.994;2022-08-01T04:51:22;2.08;;;1.88;;
6163;SDS011;3114;48.362;10.994;2022-08-01T04:53:49;3.55;;;1.90;;
6163;SDS011;3114;48.362;10.994;2022-08-01T04:56:17;4.50;;;1.98;;
6163;SDS011;3114;48.362;10.994;2022-08-01T04:58:44;3.90;;;1.70;;
6163;SDS011;3114;48.362;10.994;2022-08-01T05:01:11;2.55;;;1.75;;
6163;SDS011;3114;48.362;10.994;2022-08-01T05:03:39;1.80;;;1.70;;
6163;SDS011;3114;48.362;10.994;2022-08-01T05:06:07;2.20;;;1.85;;
6163;SDS011;3114;48.362;10.994;2022-08-01T05:08:34;2.28;;;2.08;;
6163;SDS011;3114;48.362;10.994;2022-08-01T05:11:01;3.42;;;2.03;;
6163;SDS011;3114;48.362;10.994;2022-08-01T05:13:27;2.70;;;2.00;;
6163;SDS011;3114;48.362;10.994;2022-08-01T05:15:55;2.15;;;1.70;;
6163;SDS011;3114;48.362;10.994;2022-08-01T05:18:22;3.55;;;1.98;;
6163;SDS011;3114;48.362;10.994;2022-08-01T05:20:50;3.38;;;2.10;;
6163;SDS011;3114;48.362;10.994;2022-08-01T05:23:17;5.22;;;2.03;;
6163;SDS011;3114;48.362;10.994;2022-08-01T05:25:44;1.90;;;1.80;;
6163;SDS011;3114;48.362;10.994;2022-08-01T05:28:11;2.17;;;1.98;;
6163;SDS011;3114;48.362;10.994;2022-08-01T05:30:38;3.17;;;1.77;;
6163;SDS011;3114;48.362;10.994;2022-08-01T05:33:05;2.00;;;1.80;;
6163;SDS011;3114;48.362;10.994;2022-08-01T05:35:32;3.60;;;1.90;;
6163;SDS011;3114;48.362;10.994;2022-08-01T05:38:00;2.00;;;1.90;;
6163;SDS011;3114;48.362;10.994;2022-08-01T05:40:27;2.63;;;2.00;;
6163;SDS011;3114;48.362;10.994;2022-08-01T05:42:54;3.85;;;1.92;;
6163;SDS011;3114;48.362;10.994;2022-08-01T05:45:21;3.85;;;1.92;;
6163;SDS011;3114;48.362;10.994;2022-08-01T05:47:48;2.38;;;1.90;;
6163;SDS011;3114;48.362;10.994;2022-08-01T05:50:14;2.65;;;2.00;;
6163;SDS011;3114;48.362;10.994;2022-08-01T05:52:41;2.58;;;2.00;;
6163;SDS011;3114;48.362;10.994;2022-08-01T05:55:10;3.08;;;1.90;;
6163;SDS011;3114;48.362;10.994;2022-08-01T05:57:36;3.15;;;1.90;;
6163;SDS011;3114;48.362;10.994;2022-08-01T06:00:04;3.10;;;2.20;;
6163;SDS011;3114;48.362;10.994;2022-08-01T06:02:32;4.55;;;2.00;;
6163;SDS011;3114;48.362;10.994;2022-08-01T06:04:58;2.47;;;2.10;;
6163;SDS011;3114;48.362;10.994;2022-08-01T06:07:25;1.83;;;1.73;;
6163;SDS011;3114;48.362;10.994;2022-08-01T06:09:52;5.28;;;1.98;;
6163;SDS011;3114;48.362;10.994;2022-08-01T06:12:20;3.60;;;1.83;;
6163;SDS011;3114;48.362;10.994;2022-08-01T06:14:47;2.78;;;2.03;;
6163;SDS011;3114;48.362;10.994;2022-08-01T06:17:14;2.35;;;2.10;;
6163;SDS011;3114;48.362;10.994;2022-08-01T06:19:41;3.58;;;2.00;;
6163;SDS011;3114;48.362;10.994;2022-08-01T06:22:07;4.70;;;2.00;;
6163;SDS011;3114;48.362;10.994;2022-08-01T06:24:34;2.30;;;1.90;;
6163;SDS011;3114;48.362;10.994;2022-08-01T06:27:01;2.38;;;2.00;;
6163;SDS011;3114;48.362;10.994;2022-08-01T06:29:31;3.40;;;2.20;;
6163;SDS011;3114;48.362;10.994;2022-08-01T06:31:57;1.92;;;1.83;;
6163;SDS011;3114;48.362;10.994;2022-08-01T06:34:24;1.95;;;1.63;;
6163;SDS011;3114;48.362;10.994;2022-08-01T06:36:51;2.42;;;2.10;;
6163;SDS011;3114;48.362;10.994;2022-08-01T06:39:18;3.22;;;2.00;;
6163;SDS011;3114;48.362;10.994;2022-08-01T06:41:45;2.00;;;1.80;;
6163;SDS011;3114;48.362;10.994;2022-08-01T06:44:12;3.35;;;2.00;;
6163;SDS011;3114;48.362;10.994;2022-08-01T06:46:40;2.85;;;1.88;;
6163;SDS011;3114;48.362;10.994;2022-08-01T06:49:07;3.50;;;1.98;;
6163;SDS011;3114;48.362;10.994;2022-08-01T06:51:34;2.28;;;1.95;;
6163;SDS011;3114;48.362;10.994;2022-08-01T06:54:01;3.58;;;1.90;;
6163;SDS011;3114;48.362;10.994;2022-08-01T06:56:28;11.95;;;2.53;;
6163;SDS011;3114;48.362;10.994;2022-08-01T06:58:55;2.65;;;1.98;;
6163;SDS011;3114;48.362;10.994;2022-08-01T07:01:25;2.30;;;1.90;;
6163;SDS011;3114;48.362;10.994;2022-08-01T07:03:54;4.45;;;2.55;;
6163;SDS011;3114;48.362;10.994;2022-08-01T07:06:21;3.63;;;2.05;;
6163;SDS011;3114;48.362;10.994;2022-08-01T07:08:49;2.85;;;2.08;;
6163;SDS011;3114;48.362;10.994;2022-08-01T07:11:16;2.08;;;1.95;;
6163;SDS011;3114;48.362;10.994;2022-08-01T07:13:43;2.78;;;1.92;;
6163;SDS011;3114;48.362;10.994;2022-08-01T07:16:10;2.05;;;1.85;;
6163;SDS011;3114;48.362;10.994;2022-08-01T07:18:37;6.70;;;2.35;;
6163;SDS011;3114;48.362;10.994;2022-08-01T07:21:05;2.60;;;2.15;;
6163;SDS011;3114;48.362;10.994;2022-08-01T07:23:32;2.55;;;2.20;;
6163;SDS011;3114;48.362;10.994;2022-08-01T07:25:59;4.00;;;2.20;;
6163;SDS011;3114;48.362;10.994;2022-08-01T07:28:27;5.10;;;1.80;;
6163;SDS011;3114;48.362;10.994;2022-08-01T07:30:54;2.75;;;2.15;;
6163;SDS011;3114;48.362;10.994;2022-08-01T07:33:21;2.15;;;1.98;;
6163;SDS011;3114;48.362;10.994;2022-08-01T07:35:48;4.00;;;2.17;;
6163;SDS011;3114;48.362;10.994;2022-08-01T07:38:16;5.47;;;2.35;;
6163;SDS011;3114;48.362;10.994;2022-08-01T07:40:43;2.38;;;2.17;;
6163;SDS011;3114;48.362;10.994;2022-08-01T07:43:10;2.47;;;2.28;;
6163;SDS011;3114;48.362;10.994;2022-08-01T07:45:37;3.15;;;2.20;;
6163;SDS011;3114;48.362;10.994;2022-08-01T07:48:05;3.05;;;1.95;;
6163;SDS011;3114;48.362;10.994;2022-08-01T07:50:33;3.63;;;2.00;;
6163;SDS011;3114;48.362;10.994;2022-08-01T07:53:00;2.25;;;2.03;;
6163;SDS011;3114;48.362;10.994;2022-08-01T07:55:30;3.53;;;2.03;;
6163;SDS011;3114;48.362;10.994;2022-08-01T07:57:57;2.22;;;1.90;;
6163;SDS011;3114;48.362;10.994;2022-08-01T08:00:23;2.20;;;2.00;;
6163;SDS011;3114;48.362;10.994;2022-08-01T08:02:52;2.40;;;2.20;;
6163;SDS011;3114;48.362;10.994;2022-08-01T08:05:19;4.10;;;2.10;;
6163;SDS011;3114;48.362;10.994;2022-08-01T08:07:46;2.22;;;2.03;;
6163;SDS011;3114;48.362;10.994;2022-08-01T08:10:15;3.63;;;2.20;;
6163;SDS011;3114;48.362;10.994;2022-08-01T08:12:45;2.20;;;1.95;;
6163;SDS011;3114;48.362;10.994;2022-08-01T08:15:13;2.20;;;1.85;;
6163;SDS011;3114;48.362;10.994;2022-08-01T08:17:45;5.45;;;2.10;;
6163;SDS011;3114;48.362;10.994;2022-08-01T08:20:12;2.45;;;2.13;;
6163;SDS011;3114;48.362;10.994;2022-08-01T08:22:39;3.25;;;2.13;;
6163;SDS011;3114;48.362;10.994;2022-08-01T08:25:07;2.83;;;2.15;;
6163;SDS011;3114;48.362;10.994;2022-08-01T08:27:34;3.72;;;1.83;;
6163;SDS011;3114;48.362;10.994;2022-08-01T08:30:03;4.07;;;2.03;;
6163;SDS011;3114;48.362;10.994;2022-08-01T08:32:32;2.97;;;2.20;;
6163;SDS011;3114;48.362;10.994;2022-08-01T08:34:59;2.53;;;2.20;;
6163;SDS011;3114;48.362;10.994;2022-08-01T08:37:26;2.70;;;1.95;;
6163;SDS011;3114;48.362;10.994;2022-08-01T08:39:56;3.15;;;1.90;;
6163;SDS011;3114;48.362;10.994;2022-08-01T08:42:50;3.05;;;2.08;;
6163;SDS011;3114;48.362;10.994;2022-08-01T08:45:19;2.47;;;1.75;;
6163;SDS011;3114;48.362;10.994;2022-08-01T08:47:46;2.33;;;2.10;;
6163;SDS011;3114;48.362;10.994;2022-08-01T08:50:15;1.75;;;1.65;;
6163;SDS011;3114;48.362;10.994;2022-08-01T08:52:43;2.20;;;1.83;;
6163;SDS011;3114;48.362;10.994;2022-08-01T08:55:13;1.70;;;1.60;;
6163;SDS011;3114;48.362;10.994;2022-08-01T08:57:43;2.47;;;1.75;;
6163;SDS011;3114;48.362;10.994;2022-08-01T09:00:11;3.45;;;1.60;;
6163;SDS011;3114;48.362;10.994;2022-08-01T09:02:42;1.40;;;1.30;;
6163;SDS011;3114;48.362;10.994;2022-08-01T09:05:11;2.08;;;1.50;;
6163;SDS011;3114;48.362;10.994;2022-08-01T09:07:41;1.50;;;1.40;;
6163;SDS011;3114;48.362;10.994;2022-08-01T09:10:09;2.35;;;1.40;;
6163;SDS011;3114;48.362;10.994;2022-08-01T09:12:36;2.03;;;1.60;;
6163;SDS011;3114;48.362;10.994;2022-08-01T09:15:03;1.27;;;1.25;;
6163;SDS011;3114;48.362;10.994;2022-08-01T09:17:38;1.58;;;1.40;;
6163;SDS011;3114;48.362;10.994;2022-08-01T09:20:08;1.30;;;1.20;;
6163;SDS011;3114;48.362;10.994;2022-08-01T09:22:49;2.03;;;1.45;;
6163;SDS011;3114;48.362;10.994;2022-08-01T09:25:16;1.67;;;1.42;;
6163;SDS011;3114;48.362;10.994;2022-08-01T09:27:43;2.20;;;1.52;;
6163;SDS011;3114;48.362;10.994;2022-08-01T09:30:11;2.35;;;1.50;;
6163;SDS011;3114;48.362;10.994;2022-08-01T09:32:52;2.97;;;1.27;;
6163;SDS011;3114;48.362;10.994;2022-08-01T09:35:25;2.03;;;1.20;;
6163;SDS011;3114;48.362;10.994;2022-08-01T09:38:00;2.13;;;1.42;;
6163;SDS011;3114;48.362;10.994;2022-08-01T09:40:48;1.50;;;1.20;;
6163;SDS011;3114;48.362;10.994;2022-08-01T09:43:16;3.15;;;1.20;;
6163;SDS011;3114;48.362;10.994;2022-08-01T09:45:44;1.35;;;1.25;;
6163;SDS011;3114;48.362;10.994;2022-08-01T09:48:11;2.25;;;1.30;;
6163;SDS011;3114;48.362;10.994;2022-08-01T09:50:40;1.63;;;1.52;;
6163;SDS011;3114;48.362;10.994;2022-08-01T09:53:10;3.75;;;1.67;;
6163;SDS011;3114;48.362;10.994;2022-08-01T09:55:37;1.90;;;1.30;;
6163;SDS011;3114;48.362;10.994;2022-08-01T09:58:05;2.42;;;1.02;;
6163;SDS011;3114;48.362;10.994;2022-08-01T10:00:33;2.88;;;1.30;;
6163;SDS011;3114;48.362;10.994;2022-08-01T10:03:17;1.35;;;1.25;;
6163;SDS011;3114;48.362;10.994;2022-08-01T10:05:47;1.00;;;1.00;;
6163;SDS011;3114;48.362;10.994;2022-08-01T10:08:15;2.50;;;1.10;;
6163;SDS011;3114;48.362;10.994;2022-08-01T10:11:09;1.10;;;1.00;;
6163;SDS011;3114;48.362;10.994;2022-08-01T10:13:38;1.45;;;1.10;;
6163;SDS011;3114;48.362;10.994;2022-08-01T10:16:05;1.00;;;1.00;;
6163;SDS011;3114;48.362;10.994;2022-08-01T10:18:33;1.98;;;1.17;;
6163;SDS011;3114;48.362;10.994;2022-08-01T10:21:03;1.85;;;1.25;;
6163;SDS011;3114;48.362;10.994;2022-08-01T10:23:34;1.58;;;1.02;;
6163;SDS011;3114;48.362;10.994;2022-08-01T10:26:03;1.92;;;1.13;;
6163;SDS011;3114;48.362;10.994;2022-08-01T10:28:34;2.95;;;1.13;;
6163;SDS011;3114;48.362;10.994;2022-08-01T10:31:04;1.00;;;1.00;;
6163;SDS011;3114;48.362;10.994;2022-08-01T10:33:33;1.38;;;1.20;;
6163;SDS011;3114;48.362;10.994;2022-08-01T10:36:06;1.38;;;1.20;;
6163;SDS011;3114;48.362;10.994;2022-08-01T10:38:33;1.05;;;0.90;;
6163;SDS011;3114;48.362;10.994;2022-08-01T10:41:01;1.63;;;1.20;;
6163;SDS011;3114;48.362;10.994;2022-08-01T10:43:29;2.00;;;1.13;;
6163;SDS011;3114;48.362;10.994;2022-08-01T10:45:56;2.03;;;1.13;;
6163;SDS011;3114;48.362;10.994;2022-08-01T10:48:26;1.48;;;1.30;;
6163;SDS011;3114;48.362;10.994;2022-08-01T10:51:00;2.03;;;1.10;;
6163;SDS011;3114;48.362;10.994;2022-08-01T10:53:31;1.83;;;1.00;;
6163;SDS011;3114;48.362;10.994;2022-08-01T10:55:59;1.30;;;1.20;;
6163;SDS011;3114;48.362;10.994;2022-08-01T10:58:28;1.88;;;1.00;;
6163;SDS011;3114;48.362;10.994;2022-08-01T11:01:14;0.98;;;0.98;;
6163;SDS011;3114;48.362;10.994;2022-08-01T11:04:02;0.88;;;0.88;;
6163;SDS011;3114;48.362;10.994;2022-08-01T11:06:41;1.58;;;1.00;;
6163;SDS011;3114;48.362;10.994;2022-08-01T11:09:24;0.88;;;0.88;;
6163;SDS011;3114;48.362;10.994;2022-08-01T11:11:58;0.88;;;0.88;;
6163;SDS011;3114;48.362;10.994;2022-08-01T11:14:32;2.28;;;0.88;;
6163;SDS011;3114;48.362;10.994;2022-08-01T11:20:08;1.10;;;0.98;;
6163;SDS011;3114;48.362;10.994;2022-08-01T11:31:42;1.05;;;0.95;;
6163;SDS011;3114;48.362;10.994;2022-08-01T11:34:09;3.45;;;1.00;;
6163;SDS011;3114;48.362;10.994;2022-08-01T11:36:36;1.23;;;1.10;;
6163;SDS011;3114;48.362;10.994;2022-08-01T11:39:10;2.88;;;1.17;;
6163;SDS011;3114;48.362;10.994;2022-08-01T11:41:46;1.70;;;1.20;;
6163;SDS011;3114;48.362;10.994;2022-08-01T11:44:18;1.25;;;1.15;;
6163;SDS011;3114;48.362;10.994;2022-08-01T11:46:54;1.48;;;1.10;;
6163;SDS011;3114;48.362;10.994;2022-08-01T11:52:15;1.30;;;1.20;;
6163;SDS011;3114;48.362;10.994;2022-08-01T11:54:44;4.07;;;1.27;;
6163;SDS011;3114;48.362;10.994;2022-08-01T11:57:14;2.03;;;1.48;;
6163;SDS011;3114;48.362;10.994;2022-08-01T11:59:45;2.28;;;1.40;;
6163;SDS011;3114;48.362;10.994;2022-08-01T12:02:18;1.77;;;1.55;;
6163;SDS011;3114;48.362;10.994;2022-08-01T12:04:53;3.30;;;1.73;;
6163;SDS011;3114;48.362;10.994;2022-08-01T12:07:22;3.03;;;1.30;;
6163;SDS011;3114;48.362;10.994;2022-08-01T12:09:56;1.90;;;1.38;;
6163;SDS011;3114;48.362;10.994;2022-08-01T12:12:27;2.28;;;1.20;;
6163;SDS011;3114;48.362;10.994;2022-08-01T12:14:55;1.40;;;1.30;;
6163;SDS011;3114;48.362;10.994;2022-08-01T12:17:29;3.00;;;1.30;;
6163;SDS011;3114;48.362;10.994;2022-08-01T12:19:58;1.60;;;1.20;;
6163;SDS011;3114;48.362;10.994;2022-08-01T12:22:25;2.83;;;1.88;;
6163;SDS011;3114;48.362;10.994;2022-08-01T12:24:52;1.50;;;1.40;;
6163;SDS011;3114;48.362;10.994;2022-08-01T12:27:28;1.40;;;1.30;;
6163;SDS011;3114;48.362;10.994;2022-08-01T12:29:56;3.97;;;1.45;;
6163;SDS011;3114;48.362;10.994;2022-08-01T12:32:25;2.35;;;1.20;;
6163;SDS011;3114;48.362;10.994;2022-08-01T12:34:56;2.92;;;1.48;;
6163;SDS011;3114;48.362;10.994;2022-08-01T12:37:26;1.92;;;1.38;;
6163;SDS011;3114;48.362;10.994;2022-08-01T12:39:54;1.95;;;1.40;;
6163;SDS011;3114;48.362;10.994;2022-08-01T12:42:21;1.80;;;1.40;;
6163;SDS011;3114;48.362;10.994;2022-08-01T12:44:51;3.15;;;1.60;;
6163;SDS011;3114;48.362;10.994;2022-08-01T12:47:19;3.05;;;1.50;;
6163;SDS011;3114;48.362;10.994;2022-08-01T12:49:47;1.50;;;1.40;;
6163;SDS011;3114;48.362;10.994;2022-08-01T12:52:15;1.50;;;1.40;;
6163;SDS011;3114;48.362;10.994;2022-08-01T12:57:33;1.80;;;1.20;;
6163;SDS011;3114;48.362;10.994;2022-08-01T13:00:07;1.75;;;1.35;;
6163;SDS011;3114;48.362;10.994;2022-08-01T13:02:35;1.17;;;1.17;;
6163;SDS011;3114;48.362;10.994;2022-08-01T13:05:03;2.08;;;1.20;;
6163;SDS011;3114;48.362;10.994;2022-08-01T13:07:35;1.75;;;1.27;;
6163;SDS011;3114;48.362;10.994;2022-08-01T13:10:03;2.65;;;1.42;;
6163;SDS011;3114;48.362;10.994;2022-08-01T13:12:33;1.45;;;1.10;;
6163;SDS011;3114;48.362;10.994;2022-08-01T13:17:53;1.35;;;1.27;;
6163;SDS011;3114;48.362;10.994;2022-08-01T13:20:28;2.35;;;1.30;;
6163;SDS011;3114;48.362;10.994;2022-08-01T13:23:13;1.20;;;1.10;;
6163;SDS011;3114;48.362;10.994;2022-08-01T13:25:48;2.30;;;1.20;;
6163;SDS011;3114;48.362;10.994;2022-08-01T13:28:20;1.85;;;1.40;;
6163;SDS011;3114;48.362;10.994;2022-08-01T13:30:51;1.40;;;1.30;;
6163;SDS011;3114;48.362;10.994;2022-08-01T13:33:21;1.38;;;1.08;;
6163;SDS011;3114;48.362;10.994;2022-08-01T13:35:49;2.22;;;1.20;;
6163;SDS011;3114;48.362;10.994;2022-08-01T13:38:16;1.92;;;1.20;;
6163;SDS011;3114;48.362;10.994;2022-08-01T13:40:43;1.38;;;1.30;;
6163;SDS011;3114;48.362;10.994;2022-08-01T13:43:10;1.30;;;1.20;;
6163;SDS011;3114;48.362;10.994;2022-08-01T13:45:37;1.50;;;1.40;;
6163;SDS011;3114;48.362;10.994;2022-08-01T13:48:04;1.23;;;1.10;;
6163;SDS011;3114;48.362;10.994;2022-08-01T13:50:33;2.45;;;1.63;;
6163;SDS011;3114;48.362;10.994;2022-08-01T13:53:00;3.22;;;1.60;;
6163;SDS011;3114;48.362;10.994;2022-08-01T13:55:27;1.38;;;1.27;;
6163;SDS011;3114;48.362;10.994;2022-08-01T13:57:54;2.13;;;1.20;;
6163;SDS011;3114;48.362;10.994;2022-08-01T14:00:21;1.85;;;1.55;;
6163;SDS011;3114;48.362;10.994;2022-08-01T14:02:48;2.55;;;1.73;;
6163;SDS011;3114;48.362;10.994;2022-08-01T14:05:17;3.78;;;1.90;;
6163;SDS011;3114;48.362;10.994;2022-08-01T14:07:46;2.05;;;1.58;;
6163;SDS011;3114;48.362;10.994;2022-08-01T14:10:13;3.88;;;1.73;;
6163;SDS011;3114;48.362;10.994;2022-08-01T14:12:40;3.65;;;2.08;;
6163;SDS011;3114;48.362;10.994;2022-08-01T14:15:07;3.00;;;2.13;;
6163;SDS011;3114;48.362;10.994;2022-08-01T14:17:34;4.75;;;2.15;;
6163;SDS011;3114;48.362;10.994;2022-08-01T14:20:04;3.58;;;1.88;;
6163;SDS011;3114;48.362;10.994;2022-08-01T14:22:31;4.45;;;1.90;;
6163;SDS011;3114;48.362;10.994;2022-08-01T14:24:59;3.20;;;1.80;;
6163;SDS011;3114;48.362;10.994;2022-08-01T14:27:28;5.25;;;1.90;;
6163;SDS011;3114;48.362;10.994;2022-08-01T14:29:58;2.33;;;1.60;;
6163;SDS011;3114;48.362;10.994;2022-08-01T14:32:28;2.38;;;1.52;;
6163;SDS011;3114;48.362;10.994;2022-08-01T14:35:15;3.47;;;1.77;;
6163;SDS011;3114;48.362;10.994;2022-08-01T14:37:50;3.85;;;1.50;;
6163;SDS011;3114;48.362;10.994;2022-08-01T14:43:43;3.47;;;1.40;;
6163;SDS011;3114;48.362;10.994;2022-08-01T14:46:10;3.85;;;1.45;;
6163;SDS011;3114;48.362;10.994;2022-08-01T14:48:37;2.85;;;1.40;;
6163;SDS011;3114;48.362;10.994;2022-08-01T14:51:04;3.15;;;1.48;;
6163;SDS011;3114;48.362;10.994;2022-08-01T14:53:32;3.22;;;1.00;;
6163;SDS011;3114;48.362;10.994;2022-08-01T14:56:00;7.65;;;1.42;;
6163;SDS011;3114;48.362;10.994;2022-08-01T14:58:27;2.83;;;1.65;;
6163;SDS011;3114;48.362;10.994;2022-08-01T15:00:55;3.58;;;1.17;;
6163;SDS011;3114;48.362;10.994;2022-08-01T15:03:22;2.42;;;1.00;;
6163;SDS011;3114;48.362;10.994;2022-08-01T15:05:49;1.10;;;0.68;;
6163;SDS011;3114;48.362;10.994;2022-08-01T15:08:16;1.98;;;1.00;;
6163;SDS011;3114;48.362;10.994;2022-08-01T15:10:42;1.42;;;0.98;;
6163;SDS011;3114;48.362;10.994;2022-08-01T15:13:09;1.73;;;0.90;;
6163;SDS011;3114;48.362;10.994;2022-08-01T15:15:36;0.88;;;0.88;;
6163;SDS011;3114;48.362;10.994;2022-08-01T15:18:04;1.35;;;1.00;;
6163;SDS011;3114;48.362;10.994;2022-08-01T15:20:31;1.17;;;0.95;;
6163;SDS011;3114;48.362;10.994;2022-08-01T15:22:58;2.20;;;1.00;;
6163;SDS011;3114;48.362;10.994;2022-08-01T15:25:25;2.90;;;1.20;;
6163;SDS011;3114;48.362;10.994;2022-08-01T15:27:54;0.80;;;0.80;;
6163;SDS011;3114;48.362;10.994;2022-08-01T15:30:21;1.42;;;1.00;;
6163;SDS011;3114;48.362;10.994;2022-08-01T15:32:48;1.02;;;0.93;;
6163;SDS011;3114;48.362;10.994;2022-08-01T15:35:17;2.17;;;1.10;;
6163;SDS011;3114;48.362;10.994;2022-08-01T15:37:44;1.35;;;1.20;;
6163;SDS011;3114;48.362;10.994;2022-08-01T15:40:11;1.50;;;1.40;;
6163;SDS011;3114;48.362;10.994;2022-08-01T15:42:38;1.00;;;0.90;;
6163;SDS011;3114;48.362;10.994;2022-08-01T15:45:05;3.80;;;1.60;;
6163;SDS011;3114;48.362;10.994;2022-08-01T15:47:33;4.90;;;4.38;;
6163;SDS011;3114;48.362;10.994;2022-08-01T15:49:59;7.32;;;5.35;;